• Join FlightAware (Why Join?)
  • Login
  • US Flag 
03:56AM EDT


 

Airport Tracker/Info


-or-


 

Live Flight TrackerFlight Track Log ✈ N52712 ✈ 24-May-2013 ✈ KBED - KFIT

Flight Track Log - Related Links

Times and Time Zones

All times are in EDT time to prevent confusion due to time zone crossing. See the N52712 flight status page for this flight to view local times or setup timezone preferences in your user account.

Time Position Orientation Groundspeed Altitude Reporting Facility
EDT Latitude Longitude Course Direction KTS MPH feet Rate Location/Type
12:22PM 42.4667 -71.3000 324° Northwest 78 90 800  Level KA90
12:23PM 42.4833 -71.3167 324° Northwest 75 86 1,500 720 Climbing KA90
12:24PM 42.4833 -71.3500 270° West 77 89 2,100 660 Climbing KA90
12:25PM 42.4833 -71.3833 270° West 77 89 2,900 480 Climbing KA90
12:26PM 42.5000 -71.4167 304° West 94 108 3,100  Climbing KA90
12:27PM 42.5000 -71.4500 270° West 101 116 3,000 -60 Descending KA90
12:28PM 42.5167 -71.4833 304° West 99 114 3,000  Level KA90
12:29PM 42.5167 -71.5167 270° West 93 107 3,000  Level KA90
12:30PM 42.5333 -71.5500 304° West 98 113 3,100  Climbing KA90
12:31PM 42.5333 -71.5833 270° West 97 112 3,100 -60 Level KA90
12:32PM 42.5500 -71.6167 304° West 95 109 3,000 -60 Descending KA90
12:33PM 42.5500 -71.6500 270° West 98 113 3,000  Level KA90
12:34PM 42.5667 -71.6833 304° West 87 100 3,100  Climbing KA90
12:35PM 42.5833 -71.6500 56° Northeast 92 106 3,100 -60 Level KA90
12:36PM 42.5833 -71.6333 90° East 80 92 3,000 -60 Descending KA90
12:37PM 42.6000 -71.6000 56° Northeast 77 89 3,000  Level KA90
12:38PM 42.6167 -71.6000 360° North 99 114 3,100 60 Climbing KA90
12:39PM 42.6167 -71.6333 270° West 74 85 3,200 240 Climbing KA90
12:40PM 42.6167 -71.6667 270° West 59 68 3,600  Climbing KA90
12:41PM 42.6167 -71.6833 270° West 72 83 3,300 -300 Descending KA90
12:42PM 42.6000 -71.7000 216° Southwest 64 74 3,000 -120 Descending KA90
12:43PM 42.5833 -71.7000 180° South 100 115 3,100  Climbing KA90
12:44PM 42.5667 -71.7167 216° Southwest 91 105 3,000  Descending KA90
12:45PM 42.5667 -71.7167 216° Southwest 92 106 3,100  Climbing KA90
12:46PM 42.5500 -71.7167 180° South 102 117 3,000 -240 Descending KA90
12:47PM 42.5500 -71.7000 90° East 121 139 2,700 -300 Descending KA90
12:48PM 42.5500 -71.7500 270° West 83 96 2,500 -240 Descending KA90